sensor_id;sensor_type;location;lat;lon;timestamp;temperature;humidity
2577;DHT22;1298;51.252;6.802;2023-05-07T00:01:54;15.60;99.90
2577;DHT22;1298;51.252;6.802;2023-05-07T00:04:40;15.60;99.90
2577;DHT22;1298;51.252;6.802;2023-05-07T00:07:26;15.60;99.90
2577;DHT22;1298;51.252;6.802;2023-05-07T00:10:12;15.60;99.90
2577;DHT22;1298;51.252;6.802;2023-05-07T00:12:57;15.60;99.90
2577;DHT22;1298;51.252;6.802;2023-05-07T00:15:42;15.60;99.90
2577;DHT22;1298;51.252;6.802;2023-05-07T00:18:27;15.60;99.90
2577;DHT22;1298;51.252;6.802;2023-05-07T00:21:12;15.60;99.90
2577;DHT22;1298;51.252;6.802;2023-05-07T00:23:58;15.60;99.90
2577;DHT22;1298;51.252;6.802;2023-05-07T00:26:43;15.50;99.90
2577;DHT22;1298;51.252;6.802;2023-05-07T00:29:29;15.50;99.90
2577;DHT22;1298;51.252;6.802;2023-05-07T00:32:14;15.50;99.90
2577;DHT22;1298;51.252;6.802;2023-05-07T00:34:59;15.40;99.90
2577;DHT22;1298;51.252;6.802;2023-05-07T00:37:44;15.40;99.90
2577;DHT22;1298;51.252;6.802;2023-05-07T00:40:31;15.40;99.90
2577;DHT22;1298;51.252;6.802;2023-05-07T00:43:16;15.40;99.90
2577;DHT22;1298;51.252;6.802;2023-05-07T00:46:01;15.30;99.90
2577;DHT22;1298;51.252;6.802;2023-05-07T00:48:46;15.30;99.90
2577;DHT22;1298;51.252;6.802;2023-05-07T00:51:31;15.30;99.90
2577;DHT22;1298;51.252;6.802;2023-05-07T00:54:16;15.20;99.90
2577;DHT22;1298;51.252;6.802;2023-05-07T00:57:04;15.20;99.90
2577;DHT22;1298;51.252;6.802;2023-05-07T00:59:50;15.20;99.90
2577;DHT22;1298;51.252;6.802;2023-05-07T01:02:36;15.20;99.90
2577;DHT22;1298;51.252;6.802;2023-05-07T01:05:21;15.20;99.90
2577;DHT22;1298;51.252;6.802;2023-05-07T01:08:08;15.10;99.90
2577;DHT22;1298;51.252;6.802;2023-05-07T01:10:54;15.10;99.90
2577;DHT22;1298;51.252;6.802;2023-05-07T01:13:41;15.10;99.90
2577;DHT22;1298;51.252;6.802;2023-05-07T01:16:26;15.10;99.90
2577;DHT22;1298;51.252;6.802;2023-05-07T01:19:12;15.10;99.90
2577;DHT22;1298;51.252;6.802;2023-05-07T01:22:01;15.10;99.90
2577;DHT22;1298;51.252;6.802;2023-05-07T01:24:48;15.10;99.90
2577;DHT22;1298;51.252;6.802;2023-05-07T01:27:34;15.10;99.90
2577;DHT22;1298;51.252;6.802;2023-05-07T01:30:21;15.10;99.90
2577;DHT22;1298;51.252;6.802;2023-05-07T01:33:08;15.10;99.90
2577;DHT22;1298;51.252;6.802;2023-05-07T01:35:54;15.10;99.90
2577;DHT22;1298;51.252;6.802;2023-05-07T01:38:39;15.00;99.90
2577;DHT22;1298;51.252;6.802;2023-05-07T01:41:27;14.90;99.90
2577;DHT22;1298;51.252;6.802;2023-05-07T01:44:12;15.00;99.90
2577;DHT22;1298;51.252;6.802;2023-05-07T01:46:58;15.00;99.90
2577;DHT22;1298;51.252;6.802;2023-05-07T01:49:43;14.90;99.90
2577;DHT22;1298;51.252;6.802;2023-05-07T01:52:28;14.90;99.90
2577;DHT22;1298;51.252;6.802;2023-05-07T01:55:14;15.00;99.90
2577;DHT22;1298;51.252;6.802;2023-05-07T01:58:00;14.90;99.90
2577;DHT22;1298;51.252;6.802;2023-05-07T02:00:45;14.80;99.90
2577;DHT22;1298;51.252;6.802;2023-05-07T02:03:30;14.80;99.90
2577;DHT22;1298;51.252;6.802;2023-05-07T02:06:16;14.80;99.90
2577;DHT22;1298;51.252;6.802;2023-05-07T02:09:01;14.80;99.90
2577;DHT22;1298;51.252;6.802;2023-05-07T02:11:46;14.80;99.90
2577;DHT22;1298;51.252;6.802;2023-05-07T02:14:32;14.80;99.90
2577;DHT22;1298;51.252;6.802;2023-05-07T02:17:18;14.70;99.90
2577;DHT22;1298;51.252;6.802;2023-05-07T02:20:03;14.70;99.90
2577;DHT22;1298;51.252;6.802;2023-05-07T02:22:49;14.70;99.90
2577;DHT22;1298;51.252;6.802;2023-05-07T02:25:34;14.60;99.90
2577;DHT22;1298;51.252;6.802;2023-05-07T02:28:19;14.50;99.90
2577;DHT22;1298;51.252;6.802;2023-05-07T02:31:05;14.50;99.90
2577;DHT22;1298;51.252;6.802;2023-05-07T02:33:51;14.40;99.90
2577;DHT22;1298;51.252;6.802;2023-05-07T02:36:36;14.40;99.90
2577;DHT22;1298;51.252;6.802;2023-05-07T02:39:21;14.40;99.90
2577;DHT22;1298;51.252;6.802;2023-05-07T02:42:07;14.40;99.90
2577;DHT22;1298;51.252;6.802;2023-05-07T02:44:52;14.30;99.90
2577;DHT22;1298;51.252;6.802;2023-05-07T02:47:38;14.30;99.90
2577;DHT22;1298;51.252;6.802;2023-05-07T02:50:23;14.30;99.90
2577;DHT22;1298;51.252;6.802;2023-05-07T02:53:09;14.30;99.90
2577;DHT22;1298;51.252;6.802;2023-05-07T02:55:55;14.30;99.90
2577;DHT22;1298;51.252;6.802;2023-05-07T02:58:40;14.30;99.90
2577;DHT22;1298;51.252;6.802;2023-05-07T03:01:26;14.30;99.90
2577;DHT22;1298;51.252;6.802;2023-05-07T03:04:13;14.30;99.90
2577;DHT22;1298;51.252;6.802;2023-05-07T03:06:58;14.30;99.90
2577;DHT22;1298;51.252;6.802;2023-05-07T03:09:43;14.30;99.90
2577;DHT22;1298;51.252;6.802;2023-05-07T03:12:28;14.40;99.90
2577;DHT22;1298;51.252;6.802;2023-05-07T03:15:13;14.40;99.90
2577;DHT22;1298;51.252;6.802;2023-05-07T03:17:58;14.50;99.90
2577;DHT22;1298;51.252;6.802;2023-05-07T03:20:45;14.50;99.90
2577;DHT22;1298;51.252;6.802;2023-05-07T03:23:31;14.50;99.90
2577;DHT22;1298;51.252;6.802;2023-05-07T03:26:16;14.50;99.90
2577;DHT22;1298;51.252;6.802;2023-05-07T03:29:01;14.50;99.90
2577;DHT22;1298;51.252;6.802;2023-05-07T03:31:46;14.50;99.90
2577;DHT22;1298;51.252;6.802;2023-05-07T03:34:31;14.50;99.90
2577;DHT22;1298;51.252;6.802;2023-05-07T03:37:18;14.50;99.90
2577;DHT22;1298;51.252;6.802;2023-05-07T03:40:03;14.50;99.90
2577;DHT22;1298;51.252;6.802;2023-05-07T03:42:49;14.50;99.90
2577;DHT22;1298;51.252;6.802;2023-05-07T03:45:34;14.50;99.90
2577;DHT22;1298;51.252;6.802;2023-05-07T03:48:19;14.50;99.90
2577;DHT22;1298;51.252;6.802;2023-05-07T03:51:04;14.50;99.90
2577;DHT22;1298;51.252;6.802;2023-05-07T03:53:50;14.50;99.90
2577;DHT22;1298;51.252;6.802;2023-05-07T03:56:36;14.60;99.90
2577;DHT22;1298;51.252;6.802;2023-05-07T03:59:21;14.50;99.90
2577;DHT22;1298;51.252;6.802;2023-05-07T04:02:07;14.50;99.90
2577;DHT22;1298;51.252;6.802;2023-05-07T04:04:52;14.50;99.90
2577;DHT22;1298;51.252;6.802;2023-05-07T04:07:37;14.60;99.90
2577;DHT22;1298;51.252;6.802;2023-05-07T04:10:24;14.60;99.90
2577;DHT22;1298;51.252;6.802;2023-05-07T04:13:09;14.70;99.90
2577;DHT22;1298;51.252;6.802;2023-05-07T04:15:54;14.70;99.90
2577;DHT22;1298;51.252;6.802;2023-05-07T04:18:40;14.70;99.90
2577;DHT22;1298;51.252;6.802;2023-05-07T04:21:25;14.70;99.90
2577;DHT22;1298;51.252;6.802;2023-05-07T04:24:10;14.70;99.90
2577;DHT22;1298;51.252;6.802;2023-05-07T04:26:57;14.70;99.90
2577;DHT22;1298;51.252;6.802;2023-05-07T04:29:42;14.70;99.90
2577;DHT22;1298;51.252;6.802;2023-05-07T04:32:30;14.70;99.90
2577;DHT22;1298;51.252;6.802;2023-05-07T04:35:16;14.80;99.90
2577;DHT22;1298;51.252;6.802;2023-05-07T04:38:01;14.80;99.90
2577;DHT22;1298;51.252;6.802;2023-05-07T04:40:46;14.80;99.90
2577;DHT22;1298;51.252;6.802;2023-05-07T04:43:32;14.80;99.90
2577;DHT22;1298;51.252;6.802;2023-05-07T04:46:18;14.80;99.90
2577;DHT22;1298;51.252;6.802;2023-05-07T04:49:03;14.80;99.90
2577;DHT22;1298;51.252;6.802;2023-05-07T04:51:49;14.90;99.90
2577;DHT22;1298;51.252;6.802;2023-05-07T04:54:34;14.90;99.90
2577;DHT22;1298;51.252;6.802;2023-05-07T04:57:19;14.90;99.90
2577;DHT22;1298;51.252;6.802;2023-05-07T05:00:06;15.00;99.90
2577;DHT22;1298;51.252;6.802;2023-05-07T05:02:52;15.00;99.90
2577;DHT22;1298;51.252;6.802;2023-05-07T05:05:37;15.00;99.90
2577;DHT22;1298;51.252;6.802;2023-05-07T05:08:22;15.10;99.90
2577;DHT22;1298;51.252;6.802;2023-05-07T05:11:07;15.20;99.90
2577;DHT22;1298;51.252;6.802;2023-05-07T05:13:52;15.20;99.90
2577;DHT22;1298;51.252;6.802;2023-05-07T05:16:39;15.20;99.90
2577;DHT22;1298;51.252;6.802;2023-05-07T05:19:24;15.30;99.90
2577;DHT22;1298;51.252;6.802;2023-05-07T05:22:09;15.30;99.90
2577;DHT22;1298;51.252;6.802;2023-05-07T05:24:54;15.40;99.90
2577;DHT22;1298;51.252;6.802;2023-05-07T05:27:39;15.40;99.90
2577;DHT22;1298;51.252;6.802;2023-05-07T05:30:24;15.50;99.90
2577;DHT22;1298;51.252;6.802;2023-05-07T05:33:11;15.60;99.90
2577;DHT22;1298;51.252;6.802;2023-05-07T05:35:56;15.60;99.90
2577;DHT22;1298;51.252;6.802;2023-05-07T05:38:41;15.70;99.90
2577;DHT22;1298;51.252;6.802;2023-05-07T05:41:28;15.80;99.90
2577;DHT22;1298;51.252;6.802;2023-05-07T05:44:13;15.90;99.90
2577;DHT22;1298;51.252;6.802;2023-05-07T05:46:58;16.00;99.90
2577;DHT22;1298;51.252;6.802;2023-05-07T05:49:45;16.10;99.90
2577;DHT22;1298;51.252;6.802;2023-05-07T05:52:30;16.20;99.90
2577;DHT22;1298;51.252;6.802;2023-05-07T05:55:15;16.30;99.90
2577;DHT22;1298;51.252;6.802;2023-05-07T05:58:00;16.40;99.90
2577;DHT22;1298;51.252;6.802;2023-05-07T06:00:46;16.50;99.90
2577;DHT22;1298;51.252;6.802;2023-05-07T06:03:32;16.60;99.90
2577;DHT22;1298;51.252;6.802;2023-05-07T06:06:18;16.60;99.90
2577;DHT22;1298;51.252;6.802;2023-05-07T06:09:03;16.70;99.90
2577;DHT22;1298;51.252;6.802;2023-05-07T06:11:49;16.70;99.90
2577;DHT22;1298;51.252;6.802;2023-05-07T06:14:34;16.90;99.90
2577;DHT22;1298;51.252;6.802;2023-05-07T06:17:19;16.90;99.90
2577;DHT22;1298;51.252;6.802;2023-05-07T06:20:05;17.00;99.90
2577;DHT22;1298;51.252;6.802;2023-05-07T06:22:52;17.10;99.90
2577;DHT22;1298;51.252;6.802;2023-05-07T06:25:37;17.10;99.90
2577;DHT22;1298;51.252;6.802;2023-05-07T06:28:22;17.20;99.90
2577;DHT22;1298;51.252;6.802;2023-05-07T06:31:11;17.30;99.90
2577;DHT22;1298;51.252;6.802;2023-05-07T06:33:57;17.50;99.90
2577;DHT22;1298;51.252;6.802;2023-05-07T06:36:42;17.60;99.90
2577;DHT22;1298;51.252;6.802;2023-05-07T06:39:29;17.70;99.90
2577;DHT22;1298;51.252;6.802;2023-05-07T06:42:14;17.70;99.90
2577;DHT22;1298;51.252;6.802;2023-05-07T06:44:59;17.80;99.90
2577;DHT22;1298;51.252;6.802;2023-05-07T06:47:45;17.90;99.90
2577;DHT22;1298;51.252;6.802;2023-05-07T06:50:30;18.00;99.90
2577;DHT22;1298;51.252;6.802;2023-05-07T06:53:15;18.20;99.90
2577;DHT22;1298;51.252;6.802;2023-05-07T06:56:01;18.30;99.90
2577;DHT22;1298;51.252;6.802;2023-05-07T06:58:47;18.40;99.90
2577;DHT22;1298;51.252;6.802;2023-05-07T07:01:32;18.50;99.90
2577;DHT22;1298;51.252;6.802;2023-05-07T07:04:17;18.70;99.90
2577;DHT22;1298;51.252;6.802;2023-05-07T07:07:02;18.80;99.90
2577;DHT22;1298;51.252;6.802;2023-05-07T07:09:48;18.90;99.90
2577;DHT22;1298;51.252;6.802;2023-05-07T07:12:35;19.00;99.90
2577;DHT22;1298;51.252;6.802;2023-05-07T07:15:21;19.00;99.90
2577;DHT22;1298;51.252;6.802;2023-05-07T07:18:06;19.10;99.90
2577;DHT22;1298;51.252;6.802;2023-05-07T07:20:51;19.10;99.90
2577;DHT22;1298;51.252;6.802;2023-05-07T07:23:36;19.20;99.90
2577;DHT22;1298;51.252;6.802;2023-05-07T07:26:21;19.30;99.90
2577;DHT22;1298;51.252;6.802;2023-05-07T07:29:08;19.40;99.90
2577;DHT22;1298;51.252;6.802;2023-05-07T07:31:53;19.40;99.90
2577;DHT22;1298;51.252;6.802;2023-05-07T07:34:38;19.50;99.90
2577;DHT22;1298;51.252;6.802;2023-05-07T07:37:23;19.60;99.90
2577;DHT22;1298;51.252;6.802;2023-05-07T07:40:10;19.70;99.90
2577;DHT22;1298;51.252;6.802;2023-05-07T07:42:56;19.70;99.90
2577;DHT22;1298;51.252;6.802;2023-05-07T07:45:43;19.70;99.90
2577;DHT22;1298;51.252;6.802;2023-05-07T07:48:30;19.70;99.90
2577;DHT22;1298;51.252;6.802;2023-05-07T07:51:15;19.80;99.90
2577;DHT22;1298;51.252;6.802;2023-05-07T07:54:00;19.80;99.90
2577;DHT22;1298;51.252;6.802;2023-05-07T07:56:46;19.90;99.90
2577;DHT22;1298;51.252;6.802;2023-05-07T07:59:32;19.90;99.90
2577;DHT22;1298;51.252;6.802;2023-05-07T08:02:18;19.90;99.90
2577;DHT22;1298;51.252;6.802;2023-05-07T08:05:04;19.90;99.90
2577;DHT22;1298;51.252;6.802;2023-05-07T08:07:49;20.10;99.90
2577;DHT22;1298;51.252;6.802;2023-05-07T08:10:36;20.20;99.90
2577;DHT22;1298;51.252;6.802;2023-05-07T08:13:22;20.40;99.90
2577;DHT22;1298;51.252;6.802;2023-05-07T08:16:08;20.50;99.90
2577;DHT22;1298;51.252;6.802;2023-05-07T08:18:54;20.70;99.90
2577;DHT22;1298;51.252;6.802;2023-05-07T08:21:39;20.80;99.90
2577;DHT22;1298;51.252;6.802;2023-05-07T08:24:25;20.90;99.90
2577;DHT22;1298;51.252;6.802;2023-05-07T08:27:10;20.90;99.90
2577;DHT22;1298;51.252;6.802;2023-05-07T08:29:55;21.00;99.90
2577;DHT22;1298;51.252;6.802;2023-05-07T08:32:40;21.10;99.90
2577;DHT22;1298;51.252;6.802;2023-05-07T08:35:27;21.30;99.90
2577;DHT22;1298;51.252;6.802;2023-05-07T08:38:12;21.60;99.90
2577;DHT22;1298;51.252;6.802;2023-05-07T08:40:57;21.80;99.90
2577;DHT22;1298;51.252;6.802;2023-05-07T08:43:42;22.10;99.90
2577;DHT22;1298;51.252;6.802;2023-05-07T08:46:32;22.30;99.90
2577;DHT22;1298;51.252;6.802;2023-05-07T08:49:17;22.30;99.90
2577;DHT22;1298;51.252;6.802;2023-05-07T08:52:03;22.30;99.90
2577;DHT22;1298;51.252;6.802;2023-05-07T08:54:51;22.00;99.90
2577;DHT22;1298;51.252;6.802;2023-05-07T08:57:36;22.00;99.90
2577;DHT22;1298;51.252;6.802;2023-05-07T09:00:22;22.10;99.90
2577;DHT22;1298;51.252;6.802;2023-05-07T09:03:07;22.00;99.90
2577;DHT22;1298;51.252;6.802;2023-05-07T09:05:52;22.00;99.90
2577;DHT22;1298;51.252;6.802;2023-05-07T09:08:39;22.00;99.90
2577;DHT22;1298;51.252;6.802;2023-05-07T09:11:24;22.10;99.90
2577;DHT22;1298;51.252;6.802;2023-05-07T09:14:09;22.40;99.90
2577;DHT22;1298;51.252;6.802;2023-05-07T09:16:54;22.40;99.90
2577;DHT22;1298;51.252;6.802;2023-05-07T09:19:39;22.20;99.90
2577;DHT22;1298;51.252;6.802;2023-05-07T09:22:24;22.00;99.90
2577;DHT22;1298;51.252;6.802;2023-05-07T09:25:11;21.90;99.90
2577;DHT22;1298;51.252;6.802;2023-05-07T09:27:57;21.90;99.90
2577;DHT22;1298;51.252;6.802;2023-05-07T09:30:42;22.00;99.90
2577;DHT22;1298;51.252;6.802;2023-05-07T09:33:27;22.20;99.90
2577;DHT22;1298;51.252;6.802;2023-05-07T09:36:13;22.30;99.90
2577;DHT22;1298;51.252;6.802;2023-05-07T09:38:59;22.50;99.90
2577;DHT22;1298;51.252;6.802;2023-05-07T09:41:46;22.40;99.90
2577;DHT22;1298;51.252;6.802;2023-05-07T09:44:31;22.20;99.90
2577;DHT22;1298;51.252;6.802;2023-05-07T09:47:17;22.10;99.90
2577;DHT22;1298;51.252;6.802;2023-05-07T09:50:04;22.50;99.90
2577;DHT22;1298;51.252;6.802;2023-05-07T09:52:50;22.70;99.90
2577;DHT22;1298;51.252;6.802;2023-05-07T09:55:35;23.00;99.90
2577;DHT22;1298;51.252;6.802;2023-05-07T09:58:22;23.20;99.90
2577;DHT22;1298;51.252;6.802;2023-05-07T10:01:08;23.20;99.90
2577;DHT22;1298;51.252;6.802;2023-05-07T10:03:55;23.20;99.90
2577;DHT22;1298;51.252;6.802;2023-05-07T10:06:40;23.20;99.90
2577;DHT22;1298;51.252;6.802;2023-05-07T10:09:26;23.40;99.90
2577;DHT22;1298;51.252;6.802;2023-05-07T10:12:11;23.50;99.90
2577;DHT22;1298;51.252;6.802;2023-05-07T10:14:58;23.60;99.90
2577;DHT22;1298;51.252;6.802;2023-05-07T10:17:43;23.70;99.90
2577;DHT22;1298;51.252;6.802;2023-05-07T10:20:31;24.00;99.90
2577;DHT22;1298;51.252;6.802;2023-05-07T10:23:18;24.20;99.90
2577;DHT22;1298;51.252;6.802;2023-05-07T10:26:05;24.30;99.90
2577;DHT22;1298;51.252;6.802;2023-05-07T10:28:53;24.30;99.90
2577;DHT22;1298;51.252;6.802;2023-05-07T10:31:48;24.00;99.90
2577;DHT22;1298;51.252;6.802;2023-05-07T10:34:34;24.20;99.90
2577;DHT22;1298;51.252;6.802;2023-05-07T10:37:21;24.30;99.90
2577;DHT22;1298;51.252;6.802;2023-05-07T10:40:07;24.30;99.90
2577;DHT22;1298;51.252;6.802;2023-05-07T10:42:54;24.40;99.90
2577;DHT22;1298;51.252;6.802;2023-05-07T10:45:40;24.40;99.90
2577;DHT22;1298;51.252;6.802;2023-05-07T10:48:26;24.70;99.90
2577;DHT22;1298;51.252;6.802;2023-05-07T10:51:18;24.80;99.90
2577;DHT22;1298;51.252;6.802;2023-05-07T10:54:19;25.10;99.90
2577;DHT22;1298;51.252;6.802;2023-05-07T11:00:17;25.10;99.90
2577;DHT22;1298;51.252;6.802;2023-05-07T11:03:15;25.40;99.90
2577;DHT22;1298;51.252;6.802;2023-05-07T11:06:10;25.50;99.90
2577;DHT22;1298;51.252;6.802;2023-05-07T11:08:57;25.60;99.90
2577;DHT22;1298;51.252;6.802;2023-05-07T11:11:46;25.60;99.90
2577;DHT22;1298;51.252;6.802;2023-05-07T11:14:43;25.20;99.90
2577;DHT22;1298;51.252;6.802;2023-05-07T11:17:29;25.40;99.90
2577;DHT22;1298;51.252;6.802;2023-05-07T11:20:17;25.60;99.90
2577;DHT22;1298;51.252;6.802;2023-05-07T11:23:02;25.90;99.90
2577;DHT22;1298;51.252;6.802;2023-05-07T11:25:48;26.10;99.90
2577;DHT22;1298;51.252;6.802;2023-05-07T11:28:36;26.00;99.90
2577;DHT22;1298;51.252;6.802;2023-05-07T11:31:22;26.10;99.90
2577;DHT22;1298;51.252;6.802;2023-05-07T11:34:08;25.70;99.90
2577;DHT22;1298;51.252;6.802;2023-05-07T11:36:55;25.80;99.90
2577;DHT22;1298;51.252;6.802;2023-05-07T11:39:41;25.70;99.90
2577;DHT22;1298;51.252;6.802;2023-05-07T11:42:27;25.70;99.90
2577;DHT22;1298;51.252;6.802;2023-05-07T11:45:14;25.50;99.90
2577;DHT22;1298;51.252;6.802;2023-05-07T11:48:08;25.30;99.90
2577;DHT22;1298;51.252;6.802;2023-05-07T11:50:53;24.70;99.90
2577;DHT22;1298;51.252;6.802;2023-05-07T11:53:41;24.40;99.90
2577;DHT22;1298;51.252;6.802;2023-05-07T11:56:26;24.40;99.90
2577;DHT22;1298;51.252;6.802;2023-05-07T11:59:11;24.30;99.90
2577;DHT22;1298;51.252;6.802;2023-05-07T12:01:57;24.20;99.90
2577;DHT22;1298;51.252;6.802;2023-05-07T12:04:43;24.10;99.90
2577;DHT22;1298;51.252;6.802;2023-05-07T12:07:28;23.90;99.90
2577;DHT22;1298;51.252;6.802;2023-05-07T12:10:15;23.70;99.90
2577;DHT22;1298;51.252;6.802;2023-05-07T12:13:00;23.70;99.90
2577;DHT22;1298;51.252;6.802;2023-05-07T12:15:45;23.70;99.90
2577;DHT22;1298;51.252;6.802;2023-05-07T12:18:30;23.70;99.90
2577;DHT22;1298;51.252;6.802;2023-05-07T12:21:15;23.80;99.90
2577;DHT22;1298;51.252;6.802;2023-05-07T12:24:01;23.60;99.90
2577;DHT22;1298;51.252;6.802;2023-05-07T12:26:48;23.40;99.90
2577;DHT22;1298;51.252;6.802;2023-05-07T12:29:33;23.40;99.90
2577;DHT22;1298;51.252;6.802;2023-05-07T12:32:19;23.40;99.90
2577;DHT22;1298;51.252;6.802;2023-05-07T12:35:05;23.40;99.90
2577;DHT22;1298;51.252;6.802;2023-05-07T12:37:54;23.40;99.90
2577;DHT22;1298;51.252;6.802;2023-05-07T12:40:40;23.50;99.90
2577;DHT22;1298;51.252;6.802;2023-05-07T12:43:27;23.50;99.90
2577;DHT22;1298;51.252;6.802;2023-05-07T12:46:12;23.50;99.90
2577;DHT22;1298;51.252;6.802;2023-05-07T12:48:58;23.50;99.90
2577;DHT22;1298;51.252;6.802;2023-05-07T12:51:43;23.40;99.90
2577;DHT22;1298;51.252;6.802;2023-05-07T12:54:28;23.50;99.90
2577;DHT22;1298;51.252;6.802;2023-05-07T12:57:14;23.60;99.90
2577;DHT22;1298;51.252;6.802;2023-05-07T13:00:00;23.70;99.90
2577;DHT22;1298;51.252;6.802;2023-05-07T13:02:46;23.70;99.90
2577;DHT22;1298;51.252;6.802;2023-05-07T13:05:32;23.60;99.90
2577;DHT22;1298;51.252;6.802;2023-05-07T13:08:24;23.70;99.90
2577;DHT22;1298;51.252;6.802;2023-05-07T13:11:10;23.80;99.90
2577;DHT22;1298;51.252;6.802;2023-05-07T13:13:55;23.50;99.90
2577;DHT22;1298;51.252;6.802;2023-05-07T13:16:41;23.30;99.90
2577;DHT22;1298;51.252;6.802;2023-05-07T13:19:27;23.00;99.90
2577;DHT22;1298;51.252;6.802;2023-05-07T13:22:12;22.60;99.90
2577;DHT22;1298;51.252;6.802;2023-05-07T13:24:57;22.20;99.90
2577;DHT22;1298;51.252;6.802;2023-05-07T13:27:42;21.80;99.90
2577;DHT22;1298;51.252;6.802;2023-05-07T13:30:28;21.60;99.90
2577;DHT22;1298;51.252;6.802;2023-05-07T13:33:16;21.40;99.90
2577;DHT22;1298;51.252;6.802;2023-05-07T13:36:01;21.40;99.90
2577;DHT22;1298;51.252;6.802;2023-05-07T13:38:48;21.40;99.90
2577;DHT22;1298;51.252;6.802;2023-05-07T13:41:33;21.40;99.90
2577;DHT22;1298;51.252;6.802;2023-05-07T13:44:19;21.20;99.90
2577;DHT22;1298;51.252;6.802;2023-05-07T13:47:04;21.10;99.90
2577;DHT22;1298;51.252;6.802;2023-05-07T13:49:51;21.10;99.90
2577;DHT22;1298;51.252;6.802;2023-05-07T13:52:36;21.00;99.90
2577;DHT22;1298;51.252;6.802;2023-05-07T13:55:24;21.00;99.90
2577;DHT22;1298;51.252;6.802;2023-05-07T13:58:10;20.80;99.90
2577;DHT22;1298;51.252;6.802;2023-05-07T14:00:55;20.70;99.90
2577;DHT22;1298;51.252;6.802;2023-05-07T14:03:40;20.60;99.90
2577;DHT22;1298;51.252;6.802;2023-05-07T14:06:27;20.50;99.90
2577;DHT22;1298;51.252;6.802;2023-05-07T14:09:13;20.30;99.90
2577;DHT22;1298;51.252;6.802;2023-05-07T14:11:58;20.10;99.90
2577;DHT22;1298;51.252;6.802;2023-05-07T14:14:44;20.00;99.90
2577;DHT22;1298;51.252;6.802;2023-05-07T14:17:30;20.00;99.90
2577;DHT22;1298;51.252;6.802;2023-05-07T14:20:15;20.10;99.90
2577;DHT22;1298;51.252;6.802;2023-05-07T14:23:02;20.10;99.90
2577;DHT22;1298;51.252;6.802;2023-05-07T14:25:47;20.00;99.90
2577;DHT22;1298;51.252;6.802;2023-05-07T14:28:32;20.00;99.90
2577;DHT22;1298;51.252;6.802;2023-05-07T14:31:17;19.90;99.90
2577;DHT22;1298;51.252;6.802;2023-05-07T14:34:03;19.90;99.90
2577;DHT22;1298;51.252;6.802;2023-05-07T14:36:48;19.80;99.90
2577;DHT22;1298;51.252;6.802;2023-05-07T14:39:35;19.70;99.90
2577;DHT22;1298;51.252;6.802;2023-05-07T14:42:20;19.50;99.90
2577;DHT22;1298;51.252;6.802;2023-05-07T14:45:06;19.40;99.90
2577;DHT22;1298;51.252;6.802;2023-05-07T14:47:51;19.40;99.90
2577;DHT22;1298;51.252;6.802;2023-05-07T14:50:36;19.30;99.90
2577;DHT22;1298;51.252;6.802;2023-05-07T14:53:21;19.20;99.90
2577;DHT22;1298;51.252;6.802;2023-05-07T14:56:08;19.10;99.90
2577;DHT22;1298;51.252;6.802;2023-05-07T14:58:53;19.00;99.90
2577;DHT22;1298;51.252;6.802;2023-05-07T15:01:38;18.90;99.90
2577;DHT22;1298;51.252;6.802;2023-05-07T15:04:29;18.80;99.90
2577;DHT22;1298;51.252;6.802;2023-05-07T15:07:14;18.80;99.90
2577;DHT22;1298;51.252;6.802;2023-05-07T15:10:00;18.70;99.90
2577;DHT22;1298;51.252;6.802;2023-05-07T15:12:46;18.70;99.90
2577;DHT22;1298;51.252;6.802;2023-05-07T15:15:32;18.60;99.90
2577;DHT22;1298;51.252;6.802;2023-05-07T15:18:17;18.60;99.90
2577;DHT22;1298;51.252;6.802;2023-05-07T15:21:02;18.70;99.90
2577;DHT22;1298;51.252;6.802;2023-05-07T15:23:50;18.70;99.90
2577;DHT22;1298;51.252;6.802;2023-05-07T15:26:35;18.70;99.90
2577;DHT22;1298;51.252;6.802;2023-05-07T15:29:21;18.70;99.90
2577;DHT22;1298;51.252;6.802;2023-05-07T15:32:07;18.80;99.90
2577;DHT22;1298;51.252;6.802;2023-05-07T15:34:52;18.80;99.90
2577;DHT22;1298;51.252;6.802;2023-05-07T15:37:37;18.80;99.90
2577;DHT22;1298;51.252;6.802;2023-05-07T15:40:22;18.80;99.90
2577;DHT22;1298;51.252;6.802;2023-05-07T15:43:07;18.90;99.90
2577;DHT22;1298;51.252;6.802;2023-05-07T15:45:54;19.00;99.90
2577;DHT22;1298;51.252;6.802;2023-05-07T15:48:40;19.00;99.90
2577;DHT22;1298;51.252;6.802;2023-05-07T15:51:25;19.10;99.90
2577;DHT22;1298;51.252;6.802;2023-05-07T15:54:14;19.10;99.90
2577;DHT22;1298;51.252;6.802;2023-05-07T15:57:00;19.10;99.90
2577;DHT22;1298;51.252;6.802;2023-05-07T15:59:47;19.10;99.90
2577;DHT22;1298;51.252;6.802;2023-05-07T16:02:33;19.20;99.90
2577;DHT22;1298;51.252;6.802;2023-05-07T16:05:19;19.20;99.90
2577;DHT22;1298;51.252;6.802;2023-05-07T16:08:06;19.30;99.90
2577;DHT22;1298;51.252;6.802;2023-05-07T16:10:52;19.40;99.90
2577;DHT22;1298;51.252;6.802;2023-05-07T16:13:37;19.50;99.90
2577;DHT22;1298;51.252;6.802;2023-05-07T16:16:22;19.60;99.90
2577;DHT22;1298;51.252;6.802;2023-05-07T16:19:10;19.70;99.90
2577;DHT22;1298;51.252;6.802;2023-05-07T16:21:55;20.00;99.90
2577;DHT22;1298;51.252;6.802;2023-05-07T16:24:41;20.20;99.90
2577;DHT22;1298;51.252;6.802;2023-05-07T16:27:26;20.40;99.90
2577;DHT22;1298;51.252;6.802;2023-05-07T16:30:12;20.60;99.90
2577;DHT22;1298;51.252;6.802;2023-05-07T16:32:57;20.70;99.90
2577;DHT22;1298;51.252;6.802;2023-05-07T16:35:45;20.90;99.90
2577;DHT22;1298;51.252;6.802;2023-05-07T16:38:35;21.10;99.90
2577;DHT22;1298;51.252;6.802;2023-05-07T16:41:21;21.20;99.90
2577;DHT22;1298;51.252;6.802;2023-05-07T16:44:06;21.30;99.90
2577;DHT22;1298;51.252;6.802;2023-05-07T16:46:52;21.50;99.90
2577;DHT22;1298;51.252;6.802;2023-05-07T16:49:37;21.50;99.90
2577;DHT22;1298;51.252;6.802;2023-05-07T16:52:23;21.50;99.90
2577;DHT22;1298;51.252;6.802;2023-05-07T16:55:09;21.40;99.90
2577;DHT22;1298;51.252;6.802;2023-05-07T16:57:54;21.30;99.90
2577;DHT22;1298;51.252;6.802;2023-05-07T17:00:39;21.10;99.90
2577;DHT22;1298;51.252;6.802;2023-05-07T17:03:24;21.10;99.90
2577;DHT22;1298;51.252;6.802;2023-05-07T17:06:09;20.90;99.90
2577;DHT22;1298;51.252;6.802;2023-05-07T17:08:59;20.90;99.90
2577;DHT22;1298;51.252;6.802;2023-05-07T17:11:44;20.80;99.90
2577;DHT22;1298;51.252;6.802;2023-05-07T17:14:29;20.80;99.90
2577;DHT22;1298;51.252;6.802;2023-05-07T17:17:14;20.80;99.90
2577;DHT22;1298;51.252;6.802;2023-05-07T17:19:59;20.80;99.90
2577;DHT22;1298;51.252;6.802;2023-05-07T17:22:44;20.80;99.90
2577;DHT22;1298;51.252;6.802;2023-05-07T17:25:31;20.70;99.90
2577;DHT22;1298;51.252;6.802;2023-05-07T17:28:17;20.60;99.90
2577;DHT22;1298;51.252;6.802;2023-05-07T17:31:02;20.50;99.90
2577;DHT22;1298;51.252;6.802;2023-05-07T17:33:47;20.40;99.90
2577;DHT22;1298;51.252;6.802;2023-05-07T17:36:32;20.30;99.90
2577;DHT22;1298;51.252;6.802;2023-05-07T17:39:18;20.30;99.90
2577;DHT22;1298;51.252;6.802;2023-05-07T17:42:04;20.20;99.90
2577;DHT22;1298;51.252;6.802;2023-05-07T17:44:52;20.20;99.90
2577;DHT22;1298;51.252;6.802;2023-05-07T17:47:38;20.20;99.90
2577;DHT22;1298;51.252;6.802;2023-05-07T17:50:23;20.10;99.90
2577;DHT22;1298;51.252;6.802;2023-05-07T17:53:09;20.00;99.90
2577;DHT22;1298;51.252;6.802;2023-05-07T17:55:54;19.90;99.90
2577;DHT22;1298;51.252;6.802;2023-05-07T17:58:40;19.90;99.90
2577;DHT22;1298;51.252;6.802;2023-05-07T18:01:25;19.80;99.90
2577;DHT22;1298;51.252;6.802;2023-05-07T18:04:11;19.60;99.90
2577;DHT22;1298;51.252;6.802;2023-05-07T18:06:56;19.40;99.90